createdAt,value
2022-11-22T00:00:28.072Z,10.77
2022-11-22T00:02:34.541Z,8.57
2022-11-22T00:04:38.568Z,15.43
2022-11-22T00:06:43.257Z,11.45
2022-11-22T00:08:48.712Z,12.38
2022-11-22T00:10:54.708Z,16.27
2022-11-22T00:13:00.564Z,13.98
2022-11-22T00:15:06.725Z,18.45
2022-11-22T00:17:11.058Z,15.40
2022-11-22T00:19:14.997Z,12.45
2022-11-22T00:21:27.387Z,19.25
2022-11-22T00:23:31.054Z,21.90
2022-11-22T00:25:41.358Z,18.27
2022-11-22T00:27:47.769Z,14.45
2022-11-22T00:29:55.903Z,21.80
2022-11-22T00:31:59.675Z,17.02
2022-11-22T00:34:04.475Z,25.88
2022-11-22T00:36:12.599Z,25.75
2022-11-22T00:38:18.840Z,22.88
2022-11-22T00:40:24.874Z,24.10
2022-11-22T00:42:31.144Z,20.95
2022-11-22T00:44:35.453Z,33.15
2022-11-22T00:46:40.134Z,26.63
2022-11-22T00:48:49.274Z,19.98
2022-11-22T00:50:59.991Z,20.60
2022-11-22T00:53:12.642Z,26.13
2022-11-22T00:55:16.607Z,19.77
2022-11-22T00:57:24.833Z,18.05
2022-11-22T00:59:31.547Z,24.02
2022-11-22T01:01:37.741Z,25.63
2022-11-22T01:03:45.074Z,23.83
2022-11-22T01:05:49.154Z,21.55
2022-11-22T01:07:56.963Z,19.25
2022-11-22T01:10:02.748Z,17.35
2022-11-22T01:12:06.896Z,12.13
2022-11-22T01:14:13.007Z,17.38
2022-11-22T01:16:18.471Z,15.27
2022-11-22T01:18:25.214Z,13.73
2022-11-22T01:20:38.018Z,13.75
2022-11-22T01:22:43.214Z,9.88
2022-11-22T01:24:48.216Z,14.95
2022-11-22T01:26:52.075Z,12.93
2022-11-22T01:28:59.560Z,13.57
2022-11-22T01:31:05.711Z,16.13
2022-11-22T01:33:10.904Z,9.90
2022-11-22T01:35:20.757Z,11.93
2022-11-22T01:37:39.333Z,10.93
2022-11-22T01:39:45.658Z,11.23
2022-11-22T01:41:49.657Z,12.57
2022-11-22T01:43:53.262Z,14.43
2022-11-22T01:46:02.548Z,15.75
2022-11-22T01:48:13.419Z,11.80
2022-11-22T01:50:19.892Z,12.82
2022-11-22T01:52:29.153Z,16.30
2022-11-22T01:54:48.578Z,12.75
2022-11-22T01:56:58.436Z,14.43
2022-11-22T01:59:13.785Z,18.40
2022-11-22T02:01:21.958Z,13.70
2022-11-22T02:03:31.924Z,17.27
2022-11-22T02:05:38.989Z,12.45
2022-11-22T02:07:50.127Z,13.13
2022-11-22T02:09:58.592Z,8.60
2022-11-22T02:12:06.996Z,15.45
2022-11-22T02:14:15.887Z,10.48
2022-11-22T02:16:21.837Z,13.63
2022-11-22T02:18:26.192Z,12.27
2022-11-22T02:20:32.600Z,11.15
2022-11-22T02:22:51.083Z,12.55
2022-11-22T02:25:07.721Z,14.40
2022-11-22T02:27:13.288Z,10.82
2022-11-22T02:29:20.853Z,14.55
2022-11-22T02:31:45.285Z,12.02
2022-11-22T02:33:50.312Z,11.18
2022-11-22T02:35:56.503Z,11.82
2022-11-22T02:38:09.339Z,11.52
2022-11-22T02:40:18.858Z,12.95
2022-11-22T02:42:24.975Z,11.05
2022-11-22T02:44:30.327Z,13.40
2022-11-22T02:46:40.695Z,16.05
2022-11-22T02:48:45.040Z,10.85
2022-11-22T02:50:48.987Z,9.25
2022-11-22T02:52:52.509Z,9.57
2022-11-22T02:54:56.160Z,10.73
2022-11-22T02:56:59.816Z,13.90
2022-11-22T02:59:05.137Z,15.45
2022-11-22T03:01:08.957Z,15.20
2022-11-22T03:03:12.833Z,15.15
2022-11-22T03:05:16.454Z,14.40
2022-11-22T03:07:20.290Z,13.75
2022-11-22T03:09:24.469Z,13.90
2022-11-22T03:11:28.211Z,13.55
2022-11-22T03:13:31.915Z,13.68
2022-11-22T03:15:36.938Z,11.18
2022-11-22T03:17:40.751Z,12.65
2022-11-22T03:19:44.338Z,11.25
2022-11-22T03:21:48.101Z,14.30
2022-11-22T03:23:51.956Z,13.98
2022-11-22T03:25:55.552Z,11.70
2022-11-22T03:27:59.402Z,13.93
2022-11-22T03:30:03.143Z,17.05
2022-11-22T03:32:08.331Z,10.38
2022-11-22T03:34:13.154Z,12.60
2022-11-22T03:36:16.718Z,12.23
2022-11-22T03:38:22.070Z,13.73
2022-11-22T03:40:25.741Z,12.77
2022-11-22T03:42:29.452Z,17.80
2022-11-22T03:44:33.286Z,11.13
2022-11-22T03:46:37.201Z,13.02
2022-11-22T03:48:42.412Z,11.35
2022-11-22T03:50:46.254Z,12.02
2022-11-22T03:52:49.940Z,14.55
2022-11-22T03:54:53.488Z,12.63
2022-11-22T03:56:57.347Z,15.07
2022-11-22T03:59:01.081Z,12.13
2022-11-22T04:01:05.220Z,14.60
2022-11-22T04:03:08.890Z,19.38
2022-11-22T04:05:14.066Z,12.43
2022-11-22T04:07:17.807Z,10.65
2022-11-22T04:09:21.637Z,14.52
2022-11-22T04:11:25.633Z,12.15
2022-11-22T04:13:49.163Z,11.80
2022-11-22T04:17:55.472Z,9.52
2022-11-22T04:20:22.042Z,14.35
2022-11-22T04:22:26.301Z,18.83
2022-11-22T04:25:01.604Z,11.82
2022-11-22T04:27:06.320Z,11.93
2022-11-22T04:29:10.631Z,11.00
2022-11-22T04:31:32.346Z,11.60
2022-11-22T04:33:36.546Z,16.40
2022-11-22T04:35:40.948Z,11.48
2022-11-22T04:37:51.735Z,14.63
2022-11-22T04:39:55.345Z,15.75
2022-11-22T04:42:12.871Z,9.13
2022-11-22T04:44:33.938Z,14.40
2022-11-22T04:46:38.491Z,15.23
2022-11-22T04:48:42.324Z,19.75
2022-11-22T04:51:04.169Z,18.98
2022-11-22T04:53:09.063Z,22.88
2022-11-22T04:55:12.873Z,15.70
2022-11-22T04:57:16.433Z,15.20
2022-11-22T04:59:20.273Z,15.52
2022-11-22T05:01:24.015Z,15.15
2022-11-22T05:03:27.662Z,19.63
2022-11-22T05:05:31.963Z,16.40
2022-11-22T05:07:35.449Z,17.08
2022-11-22T05:09:40.291Z,17.15
2022-11-22T05:11:43.934Z,17.88
2022-11-22T05:13:47.190Z,18.42
2022-11-22T05:15:51.468Z,17.02
2022-11-22T05:17:54.773Z,14.45
2022-11-22T05:19:58.010Z,18.15
2022-11-22T05:22:01.525Z,17.08
2022-11-22T05:24:03.979Z,15.23
2022-11-22T05:26:10.322Z,19.33
2022-11-22T05:28:13.617Z,12.77
2022-11-22T05:30:17.331Z,11.60
2022-11-22T05:32:20.998Z,15.32
2022-11-22T05:34:24.589Z,15.50
2022-11-22T05:36:28.557Z,11.40
2022-11-22T05:38:32.148Z,12.10
2022-11-22T05:40:35.959Z,11.48
2022-11-22T05:42:41.131Z,15.48
2022-11-22T05:44:45.188Z,13.07
2022-11-22T05:46:49.000Z,14.82
2022-11-22T05:48:52.431Z,15.68
2022-11-22T05:50:56.044Z,16.92
2022-11-22T05:53:03.017Z,20.08
2022-11-22T05:55:07.595Z,11.82
2022-11-22T05:57:11.192Z,7.50
2022-11-22T05:59:16.524Z,11.13
2022-11-22T06:01:21.711Z,12.30
2022-11-22T06:03:25.320Z,20.02
2022-11-22T06:05:29.176Z,10.23
2022-11-22T06:07:32.773Z,15.52
2022-11-22T06:09:36.350Z,17.55
2022-11-22T06:11:40.123Z,16.98
2022-11-22T06:13:45.557Z,14.60
2022-11-22T06:15:50.696Z,18.02
2022-11-22T06:17:54.186Z,17.42
2022-11-22T06:20:02.657Z,17.30
2022-11-22T06:22:10.297Z,16.92
2022-11-22T06:24:13.980Z,34.03
2022-11-22T06:26:20.276Z,29.55
2022-11-22T06:28:24.088Z,15.32
2022-11-22T06:30:27.743Z,13.70
2022-11-22T06:32:35.603Z,15.20
2022-11-22T06:34:39.266Z,17.40
2022-11-22T06:36:42.976Z,19.33
2022-11-22T06:38:47.121Z,13.50
2022-11-22T06:40:51.089Z,16.75
2022-11-22T06:42:54.518Z,15.07
2022-11-22T06:44:58.182Z,19.98
2022-11-22T06:47:01.722Z,27.80
2022-11-22T06:49:06.912Z,17.90
2022-11-22T06:51:13.127Z,13.98
2022-11-22T06:53:39.408Z,16.17
2022-11-22T06:58:03.546Z,15.25
2022-11-22T07:00:09.129Z,16.58
2022-11-22T07:02:13.490Z,11.63
2022-11-22T07:04:18.525Z,11.70
2022-11-22T07:06:22.030Z,13.20
2022-11-22T07:08:25.640Z,15.02
2022-11-22T07:10:29.374Z,20.50
2022-11-22T07:12:33.290Z,11.95
2022-11-22T07:14:37.779Z,13.98
2022-11-22T07:16:42.151Z,19.38
2022-11-22T07:18:46.788Z,16.30
2022-11-22T07:20:52.540Z,11.80
2022-11-22T07:22:57.126Z,17.30
2022-11-22T07:25:02.056Z,18.60
2022-11-22T07:27:06.005Z,18.88
2022-11-22T07:29:10.010Z,26.13
2022-11-22T07:31:15.706Z,23.42
2022-11-22T07:33:20.185Z,33.38
2022-11-22T07:35:24.861Z,35.55
2022-11-22T07:37:33.432Z,26.05
2022-11-22T07:39:37.991Z,19.52
2022-11-22T07:41:42.302Z,25.40
2022-11-22T07:43:47.562Z,20.92
2022-11-22T07:45:51.994Z,16.15
2022-11-22T07:47:56.220Z,17.48
2022-11-22T07:50:00.887Z,12.35
2022-11-22T07:52:04.844Z,15.77
2022-11-22T07:54:13.708Z,11.80
2022-11-22T07:56:18.185Z,18.13
2022-11-22T07:58:21.878Z,10.88
2022-11-22T08:00:25.670Z,10.57
2022-11-22T08:02:29.430Z,17.25
2022-11-22T08:04:33.254Z,13.25
2022-11-22T08:06:36.751Z,20.60
2022-11-22T08:08:40.744Z,16.45
2022-11-22T08:10:47.151Z,23.27
2022-11-22T08:12:51.139Z,22.10
2022-11-22T08:14:55.314Z,20.05
2022-11-22T08:16:59.253Z,21.52
2022-11-22T08:19:02.822Z,19.05
2022-11-22T08:21:08.606Z,20.48
2022-11-22T08:23:12.378Z,15.02
2022-11-22T08:25:16.079Z,19.65
2022-11-22T08:27:21.168Z,20.88
2022-11-22T08:29:24.786Z,21.90
2022-11-22T08:31:28.721Z,20.75
2022-11-22T08:33:32.605Z,21.10
2022-11-22T08:35:36.542Z,18.75
2022-11-22T08:37:40.422Z,19.58
2022-11-22T08:39:43.924Z,17.77
2022-11-22T08:41:47.628Z,14.25
2022-11-22T08:43:52.979Z,16.20
2022-11-22T08:45:58.781Z,17.38
2022-11-22T08:48:02.465Z,16.83
2022-11-22T08:50:07.057Z,19.67
2022-11-22T08:52:10.932Z,17.98
2022-11-22T08:54:15.380Z,19.63
2022-11-22T08:56:18.925Z,21.75
2022-11-22T08:58:22.709Z,21.63
2022-11-22T09:00:33.213Z,18.75
2022-11-22T09:02:37.092Z,17.15
2022-11-22T09:04:41.531Z,21.17
2022-11-22T09:09:36.485Z,14.30
2022-11-22T09:11:32.338Z,18.45
2022-11-22T09:13:35.856Z,14.00
2022-11-22T09:15:41.027Z,20.52
2022-11-22T09:17:44.397Z,18.58
2022-11-22T09:19:48.431Z,21.85
2022-11-22T09:21:52.113Z,15.48
2022-11-22T09:23:55.832Z,16.30
2022-11-22T09:26:00.411Z,20.60
2022-11-22T09:28:04.084Z,23.10
2022-11-22T09:30:09.119Z,21.45
2022-11-22T09:32:14.311Z,17.00
2022-11-22T09:34:18.274Z,13.85
2022-11-22T09:36:24.194Z,20.00
2022-11-22T09:38:27.859Z,31.67
2022-11-22T09:40:31.574Z,20.63
2022-11-22T09:43:09.171Z,26.30
2022-11-22T09:45:36.531Z,14.60
2022-11-22T09:47:49.594Z,24.17
2022-11-22T09:50:05.323Z,13.18
2022-11-22T09:52:12.846Z,16.30
2022-11-22T09:54:24.179Z,11.27
2022-11-22T09:56:29.240Z,14.15
2022-11-22T09:58:36.800Z,17.50
2022-11-22T10:00:49.201Z,21.50
2022-11-22T10:03:05.700Z,15.48
2022-11-22T10:05:19.201Z,21.02
2022-11-22T10:09:35.643Z,15.85
2022-11-22T10:11:45.722Z,20.13
2022-11-22T10:13:56.495Z,7.22
2022-11-22T10:16:05.134Z,8.98
2022-11-22T10:18:19.493Z,21.48
2022-11-22T10:20:25.222Z,11.27
2022-11-22T10:22:31.355Z,15.10
2022-11-22T10:24:34.851Z,15.70
2022-11-22T10:26:40.621Z,18.27
2022-11-22T10:28:53.861Z,13.00
2022-11-22T10:31:10.422Z,10.52
2022-11-22T10:33:22.300Z,19.88
2022-11-22T10:35:38.420Z,26.50
2022-11-22T10:37:51.136Z,13.20
2022-11-22T10:40:10.044Z,14.18
2022-11-22T10:42:43.296Z,15.68
2022-11-22T10:44:55.676Z,21.02
2022-11-22T10:47:06.591Z,12.82
2022-11-22T10:49:22.208Z,20.35
2022-11-22T10:51:31.324Z,15.52
2022-11-22T10:53:47.014Z,13.63
2022-11-22T10:55:59.715Z,20.50
2022-11-22T10:58:12.381Z,20.05
2022-11-22T11:00:21.069Z,16.17
2022-11-22T11:02:50.346Z,14.73
2022-11-22T11:04:57.323Z,12.65
2022-11-22T11:07:18.480Z,20.40
2022-11-22T11:11:51.445Z,21.98
2022-11-22T11:13:58.587Z,14.68
2022-11-22T11:16:06.177Z,15.38
2022-11-22T11:18:15.848Z,13.20
2022-11-22T11:20:26.612Z,13.20
2022-11-22T11:23:06.389Z,10.15
2022-11-22T11:24:57.375Z,13.60
2022-11-22T11:27:02.304Z,11.93
2022-11-22T11:29:38.174Z,10.27
2022-11-22T11:31:44.802Z,19.00
2022-11-22T11:33:49.296Z,14.93
2022-11-22T11:35:58.065Z,13.55
2022-11-22T11:38:01.553Z,12.45
2022-11-22T11:40:06.538Z,11.45
2022-11-22T11:42:26.657Z,13.07
2022-11-22T11:44:33.359Z,16.05
2022-11-22T11:46:49.253Z,17.67
2022-11-22T11:48:54.500Z,17.10
2022-11-22T11:51:17.482Z,17.60
2022-11-22T11:53:26.925Z,21.20
2022-11-22T11:55:32.710Z,11.82
2022-11-22T11:57:38.152Z,16.02
2022-11-22T11:59:47.087Z,19.10
2022-11-22T12:02:03.443Z,17.05
2022-11-22T12:04:16.012Z,14.50
2022-11-22T12:06:21.224Z,8.57
2022-11-22T12:08:31.387Z,14.27
2022-11-22T12:10:46.660Z,12.05
2022-11-22T12:12:53.815Z,11.07
2022-11-22T12:15:14.394Z,10.65
2022-11-22T12:17:31.306Z,12.00
2022-11-22T12:19:49.338Z,12.30
2022-11-22T12:22:02.599Z,9.50
2022-11-22T12:26:41.357Z,10.07
2022-11-22T12:28:45.338Z,10.90
2022-11-22T12:30:56.958Z,13.93
2022-11-22T12:33:29.811Z,10.90
2022-11-22T12:35:43.350Z,16.48
2022-11-22T12:37:58.583Z,15.63
2022-11-22T12:40:07.801Z,11.65
2022-11-22T12:42:22.698Z,8.70
2022-11-22T12:44:50.682Z,7.70
2022-11-22T12:47:00.402Z,11.55
2022-11-22T12:49:16.884Z,13.55
2022-11-22T12:51:26.649Z,13.57
2022-11-22T12:53:35.998Z,8.93
2022-11-22T12:55:46.927Z,15.85
2022-11-22T12:57:57.442Z,12.77
2022-11-22T13:00:07.621Z,14.68
2022-11-22T13:02:19.778Z,9.23
2022-11-22T13:04:34.802Z,10.63
2022-11-22T13:06:51.920Z,10.60
2022-11-22T13:09:07.864Z,10.35
2022-11-22T13:11:17.935Z,12.30
2022-11-22T13:13:26.094Z,11.05
2022-11-22T13:15:32.346Z,11.35
2022-11-22T13:17:39.180Z,14.90
2022-11-22T13:19:47.164Z,13.23
2022-11-22T13:22:09.840Z,11.20
2022-11-22T13:24:38.306Z,16.10
2022-11-22T13:26:56.743Z,14.65
2022-11-22T13:29:04.690Z,16.75
2022-11-22T13:31:18.131Z,15.55
2022-11-22T13:33:42.745Z,18.95
2022-11-22T13:36:37.475Z,20.45
2022-11-22T13:38:49.030Z,18.20
2022-11-22T13:41:33.852Z,15.45
2022-11-22T13:44:02.978Z,19.05
2022-11-22T13:47:06.112Z,16.35
2022-11-22T13:49:35.319Z,18.45
2022-11-22T13:51:57.022Z,15.07
2022-11-22T13:54:34.607Z,12.70
2022-11-22T13:57:05.741Z,15.10
2022-11-22T13:59:19.334Z,10.85
2022-11-22T14:02:33.948Z,18.13
2022-11-22T14:04:46.967Z,19.38
2022-11-22T14:09:37.376Z,13.82
2022-11-22T14:11:57.372Z,15.85
2022-11-22T14:14:12.570Z,20.55
2022-11-22T14:16:47.517Z,16.85
2022-11-22T14:19:02.507Z,24.52
2022-11-22T14:21:15.212Z,24.58
2022-11-22T14:23:40.251Z,19.48
2022-11-22T14:26:11.221Z,18.95
2022-11-22T14:28:44.474Z,19.55
2022-11-22T14:31:00.240Z,17.25
2022-11-22T14:33:26.396Z,17.85
2022-11-22T14:35:37.490Z,21.95
2022-11-22T14:37:49.699Z,19.95
2022-11-22T14:40:30.597Z,25.25
2022-11-22T14:43:01.163Z,22.45
2022-11-22T14:45:21.508Z,17.48
2022-11-22T14:47:32.019Z,20.05
2022-11-22T14:50:11.644Z,24.48
2022-11-22T14:52:26.284Z,23.70
2022-11-22T14:54:39.601Z,22.23
2022-11-22T14:56:47.979Z,29.60
2022-11-22T14:59:42.557Z,20.27
2022-11-22T15:02:43.948Z,24.00
2022-11-22T15:09:11.057Z,29.92
2022-11-22T15:09:15.574Z,26.10
2022-11-22T15:57:28.768Z,29.52
2022-11-22T15:59:39.610Z,20.85
2022-11-22T16:01:46.621Z,25.75
2022-11-22T16:03:53.455Z,32.55
2022-11-22T16:06:12.048Z,21.65
2022-11-22T16:08:17.710Z,25.30
2022-11-22T16:10:25.061Z,30.98
2022-11-22T16:12:30.756Z,34.05
2022-11-22T16:14:45.444Z,24.05
2022-11-22T16:16:50.165Z,25.13
2022-11-22T16:18:54.652Z,22.50
2022-11-22T16:21:02.575Z,24.92
2022-11-22T16:23:20.111Z,17.33
2022-11-22T16:25:33.340Z,19.38
2022-11-22T16:27:37.529Z,20.17
2022-11-22T16:29:43.185Z,19.50
2022-11-22T16:31:46.949Z,14.02
2022-11-22T16:33:51.270Z,19.65
2022-11-22T16:35:56.819Z,15.65
2022-11-22T16:38:01.550Z,20.40
2022-11-22T16:40:06.357Z,18.15
2022-11-22T16:42:12.193Z,16.58
2022-11-22T16:44:18.507Z,16.25
2022-11-22T16:46:22.990Z,23.60
2022-11-22T16:48:32.981Z,16.88
2022-11-22T16:50:37.459Z,19.92
2022-11-22T16:52:41.463Z,15.40
2022-11-22T16:54:45.523Z,18.65
2022-11-22T16:56:49.620Z,19.67
2022-11-22T16:58:57.603Z,17.05
2022-11-22T17:01:02.201Z,16.00
2022-11-22T17:03:06.075Z,14.73
2022-11-22T17:05:18.012Z,13.98
2022-11-22T17:07:21.852Z,19.60
2022-11-22T17:09:25.958Z,15.70
2022-11-22T17:11:32.121Z,17.77
2022-11-22T17:13:36.130Z,16.75
2022-11-22T17:15:43.715Z,87.68
2022-11-22T17:17:47.381Z,24.98
2022-11-22T17:19:53.510Z,31.23
2022-11-22T17:21:57.904Z,16.58
2022-11-22T17:24:04.023Z,17.20
2022-11-22T17:26:07.917Z,24.67
2022-11-22T17:28:11.532Z,19.02
2022-11-22T17:30:17.016Z,17.15
2022-11-22T17:32:22.119Z,20.17
2022-11-22T17:34:26.176Z,23.98
2022-11-22T17:36:31.944Z,21.52
2022-11-22T17:38:36.059Z,20.55
2022-11-22T17:40:40.177Z,18.63
2022-11-22T17:42:44.142Z,18.17
2022-11-22T17:44:48.297Z,28.27
2022-11-22T17:46:52.584Z,21.58
2022-11-22T17:48:59.794Z,23.80
2022-11-22T17:51:07.914Z,24.65
2022-11-22T17:53:11.612Z,30.73
2022-11-22T17:55:15.336Z,29.05
2022-11-22T17:57:19.249Z,42.70
2022-11-22T17:59:23.267Z,119.05
2022-11-22T18:01:27.454Z,174.85
2022-11-22T18:03:31.890Z,96.35
2022-11-22T18:05:37.453Z,34.05
2022-11-22T18:07:41.984Z,35.03
2022-11-22T18:09:50.968Z,61.47
2022-11-22T18:11:55.670Z,44.65
2022-11-22T18:13:59.459Z,170.63
2022-11-22T18:16:05.703Z,102.63
2022-11-22T18:18:33.348Z,77.28
2022-11-22T18:21:20.068Z,65.65
2022-11-22T18:23:40.254Z,57.40
2022-11-22T18:25:44.372Z,42.78
2022-11-22T18:27:48.277Z,35.42
2022-11-22T18:29:51.781Z,35.97
2022-11-22T18:31:55.741Z,29.65
2022-11-22T18:33:59.297Z,27.23
2022-11-22T18:36:04.740Z,32.80
2022-11-22T18:38:10.890Z,48.33
2022-11-22T18:40:15.476Z,42.78
2022-11-22T18:42:19.208Z,37.47
2022-11-22T18:44:22.941Z,31.52
2022-11-22T18:46:26.528Z,34.95
2022-11-22T18:48:31.001Z,28.45
2022-11-22T18:50:35.343Z,30.15
2022-11-22T18:52:39.514Z,27.38
2022-11-22T18:54:45.002Z,33.22
2022-11-22T18:56:48.664Z,39.00
2022-11-22T18:58:52.602Z,36.10
2022-11-22T19:00:56.459Z,31.67
2022-11-22T19:03:01.818Z,34.53
2022-11-22T19:05:06.387Z,33.63
2022-11-22T19:07:10.159Z,45.20
2022-11-22T19:09:14.085Z,42.88
2022-11-22T19:11:19.104Z,33.45
2022-11-22T19:13:22.871Z,36.85
2022-11-22T19:15:26.547Z,38.33
2022-11-22T19:17:30.641Z,42.83
2022-11-22T19:19:34.500Z,37.25
2022-11-22T19:21:38.245Z,40.22
2022-11-22T19:23:42.622Z,41.15
2022-11-22T19:25:46.562Z,35.88
2022-11-22T19:27:51.927Z,32.60
2022-11-22T19:29:55.616Z,38.55
2022-11-22T19:31:59.262Z,35.53
2022-11-22T19:34:03.416Z,36.28
2022-11-22T19:36:11.512Z,39.85
2022-11-22T19:38:15.438Z,37.67
2022-11-22T19:40:19.872Z,43.63
2022-11-22T19:42:23.651Z,40.78
2022-11-22T19:44:28.693Z,44.17
2022-11-22T19:46:33.233Z,43.95
2022-11-22T19:48:39.058Z,48.63
2022-11-22T19:50:45.456Z,50.97
2022-11-22T19:52:49.095Z,52.03
2022-11-22T19:54:53.073Z,55.67
2022-11-22T19:56:56.814Z,65.47
2022-11-22T19:59:02.590Z,46.33
2022-11-22T20:01:10.010Z,48.17
2022-11-22T20:03:14.835Z,50.72
2022-11-22T20:05:19.513Z,44.50
2022-11-22T20:07:23.675Z,48.42
2022-11-22T20:09:27.439Z,35.83
2022-11-22T20:11:31.428Z,49.35
2022-11-22T20:13:38.666Z,41.75
2022-11-22T20:15:44.135Z,44.08
2022-11-22T20:17:50.159Z,45.17
2022-11-22T20:19:54.232Z,48.60
2022-11-22T20:21:58.467Z,50.72
2022-11-22T20:24:02.806Z,56.65
2022-11-22T20:26:09.914Z,55.60
2022-11-22T20:28:14.343Z,76.40
2022-11-22T20:30:19.484Z,74.07
2022-11-22T20:32:24.364Z,76.80
2022-11-22T20:34:31.091Z,73.15
2022-11-22T20:36:40.119Z,72.07
2022-11-22T20:38:45.597Z,72.88
2022-11-22T20:40:49.570Z,84.32
2022-11-22T20:42:53.350Z,73.43
2022-11-22T20:44:57.486Z,84.60
2022-11-22T20:47:02.333Z,88.65
2022-11-22T20:49:06.443Z,85.50
2022-11-22T20:51:14.077Z,91.38
2022-11-22T20:53:18.528Z,109.63
2022-11-22T20:55:24.285Z,98.10
2022-11-22T20:57:28.463Z,90.93
2022-11-22T20:59:32.853Z,100.32
2022-11-22T21:01:37.343Z,103.10
2022-11-22T21:03:41.393Z,102.05
2022-11-22T21:05:46.881Z,106.22
2022-11-22T21:07:52.225Z,100.22
2022-11-22T21:09:55.955Z,104.00
2022-11-22T21:11:59.667Z,109.90
2022-11-22T21:14:03.413Z,99.90
2022-11-22T21:16:21.730Z,87.78
2022-11-22T21:18:30.578Z,99.35
2022-11-22T21:20:36.142Z,94.03
2022-11-22T21:22:39.956Z,92.03
2022-11-22T21:24:46.193Z,91.80
2022-11-22T21:26:51.554Z,100.75
2022-11-22T21:28:55.457Z,90.47
2022-11-22T21:30:59.260Z,91.65
2022-11-22T21:33:02.972Z,84.82
2022-11-22T21:35:07.751Z,89.65
2022-11-22T21:37:11.606Z,89.07
2022-11-22T21:39:15.269Z,97.28
2022-11-22T21:43:50.197Z,103.55
2022-11-22T21:45:54.744Z,84.88
2022-11-22T21:47:58.114Z,92.50
2022-11-22T21:50:03.313Z,96.28
2022-11-22T21:52:08.765Z,108.60
2022-11-22T21:54:12.340Z,97.88
2022-11-22T21:56:16.004Z,114.78
2022-11-22T21:58:22.461Z,114.68
2022-11-22T22:00:26.255Z,121.85
2022-11-22T22:02:30.876Z,109.55
2022-11-22T22:04:34.649Z,84.20
2022-11-22T22:06:42.310Z,63.83
2022-11-22T22:08:49.000Z,58.65
2022-11-22T22:10:55.770Z,62.10
2022-11-22T22:13:00.501Z,56.47
2022-11-22T22:15:06.312Z,73.85
2022-11-22T22:17:10.441Z,63.65
2022-11-22T22:19:19.283Z,79.78
2022-11-22T22:21:22.825Z,76.65
2022-11-22T22:23:26.715Z,62.30
2022-11-22T22:25:30.527Z,54.35
2022-11-22T22:27:34.733Z,64.40
2022-11-22T22:29:38.368Z,48.47
2022-11-22T22:31:43.596Z,23.83
2022-11-22T22:33:47.471Z,17.73
2022-11-22T22:35:51.188Z,22.35
2022-11-22T22:37:55.280Z,14.52
2022-11-22T22:39:59.377Z,16.80
2022-11-22T22:42:03.524Z,12.98
2022-11-22T22:44:07.410Z,14.13
2022-11-22T22:46:14.140Z,15.13
2022-11-22T22:48:19.859Z,14.13
2022-11-22T22:50:23.720Z,6.15
2022-11-22T22:52:27.447Z,13.02
2022-11-22T22:54:31.031Z,11.40
2022-11-22T22:56:34.711Z,20.15
2022-11-22T22:58:38.810Z,10.38
2022-11-22T23:00:42.809Z,8.95
2022-11-22T23:02:46.581Z,6.68
2022-11-22T23:04:52.639Z,8.07
2022-11-22T23:06:56.360Z,8.77
2022-11-22T23:09:00.811Z,4.32
2022-11-22T23:11:06.754Z,6.18
2022-11-22T23:13:10.328Z,10.38
2022-11-22T23:15:17.609Z,12.10
2022-11-22T23:17:26.151Z,13.02
2022-11-22T23:19:30.214Z,13.18
2022-11-22T23:21:36.730Z,12.98
2022-11-22T23:23:40.621Z,16.95
2022-11-22T23:25:44.151Z,16.65
2022-11-22T23:27:47.709Z,11.93
2022-11-22T23:29:51.427Z,12.27
2022-11-22T23:31:55.715Z,13.75
2022-11-22T23:34:01.224Z,10.15
2022-11-22T23:36:06.658Z,6.75
2022-11-22T23:38:12.120Z,6.68
2022-11-22T23:40:16.577Z,7.10
2022-11-22T23:42:20.328Z,11.02
2022-11-22T23:44:23.929Z,3.17
2022-11-22T23:46:28.205Z,3.60
2022-11-22T23:48:31.725Z,5.22
2022-11-22T23:50:37.430Z,4.68
2022-11-22T23:52:41.192Z,3.00
2022-11-22T23:54:46.355Z,4.38
2022-11-22T23:56:49.872Z,8.00
2022-11-22T23:58:54.201Z,3.58
